createdAt,value
2023-04-30T00:00:36.263Z,13.79
2023-04-30T00:03:24.691Z,13.15
2023-04-30T00:05:53.720Z,12.73
2023-04-30T00:08:21.568Z,12.79
2023-04-30T00:10:49.359Z,14.24
2023-04-30T00:13:17.261Z,14.99
2023-04-30T00:15:45.155Z,14.16
2023-04-30T00:18:13.867Z,13.35
2023-04-30T00:20:41.689Z,12.76
2023-04-30T00:23:09.597Z,12.32
2023-04-30T00:25:37.385Z,12.69
2023-04-30T00:28:05.514Z,14.21
2023-04-30T00:30:33.360Z,14.69
2023-04-30T00:33:01.196Z,13.76
2023-04-30T00:35:28.984Z,12.96
2023-04-30T00:37:56.881Z,12.40
2023-04-30T00:40:24.793Z,12.50
2023-04-30T00:42:55.747Z,13.94
2023-04-30T00:45:23.809Z,14.65
2023-04-30T00:47:51.989Z,13.75
2023-04-30T00:50:20.266Z,12.91
2023-04-30T00:52:48.369Z,12.30
2023-04-30T00:55:16.822Z,12.32
2023-04-30T00:57:44.732Z,13.88
2023-04-30T01:00:14.031Z,14.69
2023-04-30T01:02:41.914Z,13.75
2023-04-30T01:05:10.253Z,12.86
2023-04-30T01:07:41.563Z,12.22
2023-04-30T01:10:09.938Z,12.26
2023-04-30T01:12:57.079Z,13.74
2023-04-30T01:15:31.439Z,14.28
2023-04-30T01:18:26.434Z,13.27
2023-04-30T01:21:00.828Z,12.36
2023-04-30T01:23:44.706Z,11.81
2023-04-30T01:26:27.238Z,11.50
2023-04-30T01:28:56.910Z,12.83
2023-04-30T01:31:24.768Z,13.84
2023-04-30T01:33:52.881Z,13.09
2023-04-30T01:36:38.725Z,12.26
2023-04-30T01:39:20.161Z,11.64
2023-04-30T01:41:56.682Z,11.18
2023-04-30T01:44:54.165Z,11.46
2023-04-30T01:47:45.556Z,13.40
2023-04-30T01:50:55.907Z,13.95
2023-04-30T01:53:35.854Z,12.70
2023-04-30T01:56:11.663Z,11.92
2023-04-30T01:58:40.690Z,11.40
2023-04-30T02:01:31.896Z,11.27
2023-04-30T02:04:00.627Z,12.92
2023-04-30T02:06:30.018Z,13.77
2023-04-30T02:09:03.017Z,12.92
2023-04-30T02:11:31.169Z,12.04
2023-04-30T02:13:58.968Z,11.44
2023-04-30T02:16:26.965Z,11.00
2023-04-30T02:18:54.963Z,11.12
2023-04-30T02:21:27.550Z,12.57
2023-04-30T02:23:55.571Z,13.47
2023-04-30T02:26:23.472Z,12.62
2023-04-30T02:28:51.339Z,11.78
2023-04-30T02:31:19.627Z,11.17
2023-04-30T02:33:47.462Z,10.74
2023-04-30T02:36:15.230Z,10.96
2023-04-30T02:38:43.077Z,12.51
2023-04-30T02:41:14.000Z,13.37
2023-04-30T02:43:42.292Z,12.56
2023-04-30T02:46:10.115Z,11.68
2023-04-30T02:48:37.954Z,11.06
2023-04-30T02:51:05.966Z,10.72
2023-04-30T02:53:33.952Z,11.74
2023-04-30T02:56:01.931Z,12.68
2023-04-30T02:58:29.832Z,11.99
2023-04-30T03:00:57.813Z,11.19
2023-04-30T03:03:25.719Z,10.62
2023-04-30T03:05:56.658Z,10.69
2023-04-30T03:08:24.655Z,12.21
2023-04-30T03:10:52.511Z,13.02
2023-04-30T03:13:22.377Z,12.16
2023-04-30T03:15:50.195Z,11.29
2023-04-30T03:18:18.018Z,10.67
2023-04-30T03:20:45.872Z,10.63
2023-04-30T03:23:13.933Z,11.97
2023-04-30T03:25:41.797Z,13.13
2023-04-30T03:28:09.622Z,12.55
2023-04-30T03:30:37.464Z,11.55
2023-04-30T03:33:08.086Z,10.84
2023-04-30T03:35:36.169Z,10.33
2023-04-30T03:38:04.268Z,10.48
2023-04-30T03:40:32.152Z,12.03
2023-04-30T03:42:59.999Z,12.92
2023-04-30T03:45:27.906Z,12.07
2023-04-30T03:47:55.901Z,11.15
2023-04-30T03:50:23.679Z,10.49
2023-04-30T03:52:51.546Z,10.06
2023-04-30T03:55:19.481Z,10.70
2023-04-30T03:57:47.382Z,12.22
2023-04-30T04:00:15.578Z,12.88
2023-04-30T04:02:43.465Z,11.88
2023-04-30T04:05:11.366Z,10.95
2023-04-30T04:07:39.189Z,10.35
2023-04-30T04:10:08.133Z,10.49
2023-04-30T04:12:35.991Z,12.04
2023-04-30T04:15:04.818Z,12.90
2023-04-30T04:17:32.816Z,12.14
2023-04-30T04:20:00.535Z,11.38
2023-04-30T04:22:28.397Z,10.88
2023-04-30T04:24:56.464Z,10.57
2023-04-30T04:27:25.214Z,10.86
2023-04-30T04:29:55.158Z,12.42
2023-04-30T04:32:23.477Z,12.82
2023-04-30T04:34:54.243Z,12.04
2023-04-30T04:37:22.143Z,11.46
2023-04-30T04:39:50.134Z,11.05
2023-04-30T04:42:18.101Z,10.83
2023-04-30T04:44:46.379Z,11.84
2023-04-30T04:47:14.240Z,12.80
2023-04-30T04:49:42.182Z,12.23
2023-04-30T04:52:10.045Z,11.59
2023-04-30T04:54:37.881Z,11.12
2023-04-30T04:57:05.799Z,10.80
2023-04-30T04:59:33.617Z,10.54
2023-04-30T05:02:01.533Z,10.80
2023-04-30T05:04:30.525Z,12.42
2023-04-30T05:06:58.337Z,13.31
2023-04-30T05:09:26.205Z,12.56
2023-04-30T05:11:53.939Z,11.81
2023-04-30T05:14:21.884Z,11.31
2023-04-30T05:16:49.812Z,10.92
2023-04-30T05:19:17.557Z,10.65
2023-04-30T05:21:45.312Z,10.97
2023-04-30T05:24:13.104Z,12.53
2023-04-30T05:26:40.926Z,13.02
2023-04-30T05:29:08.751Z,12.22
2023-04-30T05:31:36.970Z,11.56
2023-04-30T05:34:04.840Z,11.13
2023-04-30T05:36:32.631Z,10.85
2023-04-30T05:39:00.608Z,10.62
2023-04-30T05:41:28.434Z,10.43
2023-04-30T05:43:56.248Z,10.38
2023-04-30T05:46:24.041Z,11.58
2023-04-30T05:48:51.832Z,12.31
2023-04-30T05:51:19.683Z,11.77
2023-04-30T05:53:47.484Z,11.26
2023-04-30T05:56:15.272Z,10.96
2023-04-30T05:58:43.087Z,10.77
2023-04-30T06:01:11.177Z,10.65
2023-04-30T06:03:39.115Z,10.58
2023-04-30T06:06:07.327Z,10.58
2023-04-30T06:08:35.161Z,11.70
2023-04-30T06:11:05.119Z,13.05
2023-04-30T06:13:32.894Z,12.74
2023-04-30T06:16:00.712Z,12.30
2023-04-30T06:18:28.697Z,12.06
2023-04-30T06:20:56.540Z,11.96
2023-04-30T06:23:24.380Z,11.94
2023-04-30T06:25:52.135Z,11.97
2023-04-30T06:28:19.959Z,12.05
2023-04-30T06:30:47.987Z,12.16
2023-04-30T06:33:16.136Z,12.28
2023-04-30T06:35:44.163Z,12.41
2023-04-30T06:38:12.208Z,12.54
2023-04-30T06:40:40.319Z,12.67
2023-04-30T06:43:08.129Z,12.81
2023-04-30T06:45:36.695Z,12.98
2023-04-30T06:48:04.851Z,13.10
2023-04-30T06:50:32.758Z,13.19
2023-04-30T06:53:00.827Z,13.22
2023-04-30T06:55:30.004Z,13.25
2023-04-30T06:57:58.199Z,13.32
2023-04-30T07:00:26.545Z,13.48
2023-04-30T07:02:54.358Z,13.67
2023-04-30T07:05:22.292Z,13.77
2023-04-30T07:07:50.242Z,13.85
2023-04-30T07:10:18.893Z,13.95
2023-04-30T07:12:48.088Z,14.07
2023-04-30T07:15:16.082Z,14.22
2023-04-30T07:17:44.174Z,14.37
2023-04-30T07:20:16.505Z,14.52
2023-04-30T07:22:45.993Z,14.68
2023-04-30T07:25:14.134Z,14.83
2023-04-30T07:27:42.183Z,15.00
2023-04-30T07:30:10.679Z,15.18
2023-04-30T07:32:41.119Z,15.37
2023-04-30T07:35:09.887Z,15.63
2023-04-30T07:37:39.188Z,15.90
2023-04-30T07:40:15.300Z,16.14
2023-04-30T07:42:47.311Z,16.45
2023-04-30T07:45:15.242Z,16.70
2023-04-30T07:47:43.133Z,16.86
2023-04-30T07:50:12.437Z,17.05
2023-04-30T07:52:41.604Z,17.28
2023-04-30T07:55:09.600Z,17.52
2023-04-30T07:57:37.443Z,17.76
2023-04-30T08:00:06.307Z,17.97
2023-04-30T08:02:34.531Z,18.16
2023-04-30T08:05:02.578Z,18.40
2023-04-30T08:07:30.432Z,18.63
2023-04-30T08:09:58.305Z,18.82
2023-04-30T08:12:26.273Z,19.03
2023-04-30T08:15:02.780Z,19.21
2023-04-30T08:17:32.205Z,19.24
2023-04-30T08:20:01.459Z,19.25
2023-04-30T08:22:29.355Z,19.26
2023-04-30T08:24:57.435Z,19.24
2023-04-30T08:27:25.306Z,19.27
2023-04-30T08:29:56.036Z,19.33
2023-04-30T08:32:24.381Z,19.41
2023-04-30T08:34:52.679Z,19.52
2023-04-30T08:37:20.995Z,19.64
2023-04-30T08:39:48.731Z,19.74
2023-04-30T08:42:17.566Z,19.84
2023-04-30T08:44:46.676Z,19.94
2023-04-30T08:47:14.733Z,20.02
2023-04-30T08:49:43.904Z,20.12
2023-04-30T08:52:12.288Z,20.17
2023-04-30T08:54:40.210Z,20.07
2023-04-30T08:57:09.954Z,19.96
2023-04-30T08:59:37.888Z,19.85
2023-04-30T09:02:06.352Z,19.83
2023-04-30T09:04:34.416Z,19.81
2023-04-30T09:07:12.229Z,19.79
2023-04-30T09:09:42.820Z,19.76
2023-04-30T09:12:20.343Z,19.70
2023-04-30T09:15:06.970Z,19.70
2023-04-30T09:17:36.073Z,19.67
2023-04-30T09:20:17.664Z,19.61
2023-04-30T09:22:46.438Z,19.54
2023-04-30T09:25:14.944Z,19.42
2023-04-30T09:27:45.471Z,19.38
2023-04-30T09:30:32.001Z,19.40
2023-04-30T09:33:00.354Z,19.39
2023-04-30T09:35:37.329Z,19.38
2023-04-30T09:38:05.417Z,19.30
2023-04-30T09:40:37.037Z,19.28
2023-04-30T09:43:05.228Z,19.31
2023-04-30T09:45:44.782Z,19.39
2023-04-30T09:48:17.534Z,19.49
2023-04-30T09:50:46.291Z,19.65
2023-04-30T09:53:15.007Z,19.81
2023-04-30T09:55:45.118Z,19.89
2023-04-30T09:58:14.593Z,19.99
2023-04-30T10:00:45.308Z,20.05
2023-04-30T10:03:15.165Z,20.16
2023-04-30T10:05:48.861Z,20.28
2023-04-30T10:08:27.514Z,20.39
2023-04-30T10:11:07.265Z,20.48
2023-04-30T10:14:06.222Z,20.57
2023-04-30T10:16:59.732Z,20.68
2023-04-30T10:19:34.369Z,20.71
2023-04-30T10:22:02.504Z,20.64
2023-04-30T10:24:30.810Z,20.53
2023-04-30T10:26:59.078Z,20.51
2023-04-30T10:29:26.933Z,20.49
2023-04-30T10:31:55.095Z,20.53
2023-04-30T10:34:50.875Z,20.58
2023-04-30T10:37:31.716Z,20.61
2023-04-30T10:40:02.277Z,20.59
2023-04-30T10:42:30.115Z,20.45
2023-04-30T10:44:58.161Z,20.34
2023-04-30T10:47:30.580Z,20.31
2023-04-30T10:50:26.535Z,20.33
2023-04-30T10:53:05.408Z,20.40
2023-04-30T10:55:33.735Z,20.42
2023-04-30T10:58:01.548Z,20.28
2023-04-30T11:00:30.076Z,20.15
2023-04-30T11:03:03.506Z,20.11
2023-04-30T11:05:38.271Z,20.14
2023-04-30T11:08:11.569Z,20.04
2023-04-30T11:10:57.736Z,19.97
2023-04-30T11:13:26.772Z,19.94
2023-04-30T11:16:03.878Z,19.96
2023-04-30T11:18:36.093Z,19.96
2023-04-30T11:21:04.275Z,19.97
2023-04-30T11:26:07.675Z,20.04
2023-04-30T11:28:38.086Z,20.12
2023-04-30T11:31:06.166Z,20.19
2023-04-30T11:33:35.182Z,20.23
2023-04-30T11:36:03.387Z,20.09
2023-04-30T11:38:36.770Z,20.06
2023-04-30T11:41:05.550Z,20.07
2023-04-30T11:43:35.047Z,20.09
2023-04-30T11:46:18.289Z,20.13
2023-04-30T11:48:47.103Z,20.17
2023-04-30T11:51:25.708Z,20.21
2023-04-30T11:53:54.029Z,20.21
2023-04-30T11:56:24.478Z,20.21
2023-04-30T11:58:53.530Z,20.18
2023-04-30T12:01:21.677Z,20.17
2023-04-30T12:03:53.251Z,20.17
2023-04-30T12:06:28.269Z,20.16
2023-04-30T12:08:58.751Z,20.13
2023-04-30T12:11:29.332Z,20.09
2023-04-30T12:14:07.645Z,20.10
2023-04-30T12:16:45.419Z,20.06
2023-04-30T12:19:14.091Z,19.99
2023-04-30T12:21:47.395Z,19.84
2023-04-30T12:24:18.027Z,19.78
2023-04-30T12:26:46.870Z,19.77
2023-04-30T12:29:17.972Z,19.76
2023-04-30T12:31:50.954Z,19.75
2023-04-30T12:34:19.151Z,19.73
2023-04-30T12:36:47.200Z,19.62
2023-04-30T12:39:16.627Z,19.50
2023-04-30T12:41:52.247Z,19.40
2023-04-30T12:44:27.705Z,19.36
2023-04-30T12:47:00.780Z,19.36
2023-04-30T12:49:33.869Z,19.34
2023-04-30T12:52:07.618Z,19.34
2023-04-30T12:54:37.391Z,19.34
2023-04-30T12:57:11.093Z,19.35
2023-04-30T13:00:00.370Z,19.35
2023-04-30T13:02:32.174Z,19.30
2023-04-30T13:05:00.287Z,19.28
2023-04-30T13:07:38.721Z,19.28
2023-04-30T13:10:07.398Z,19.27
2023-04-30T13:12:35.295Z,19.24
2023-04-30T13:15:03.969Z,19.23
2023-04-30T13:17:31.833Z,19.21
2023-04-30T13:19:59.749Z,19.18
2023-04-30T13:22:29.726Z,19.17
2023-04-30T13:24:57.873Z,19.08
2023-04-30T13:27:26.014Z,19.00
2023-04-30T13:29:53.998Z,18.96
2023-04-30T13:32:22.017Z,18.90
2023-04-30T13:34:52.336Z,18.86
2023-04-30T13:37:21.256Z,18.75
2023-04-30T13:39:49.511Z,18.64
2023-04-30T13:42:17.526Z,18.54
2023-04-30T13:44:48.051Z,18.45
2023-04-30T13:47:16.641Z,18.38
2023-04-30T13:49:44.629Z,18.26
2023-04-30T13:52:13.291Z,18.09
2023-04-30T13:54:41.554Z,17.95
2023-04-30T13:57:09.514Z,17.81
2023-04-30T13:59:38.714Z,17.69
2023-04-30T14:02:07.524Z,17.59
2023-04-30T14:04:35.444Z,17.48
2023-04-30T14:07:07.307Z,17.31
2023-04-30T14:09:36.234Z,17.18
2023-04-30T14:12:04.582Z,17.09
2023-04-30T14:14:32.435Z,17.01
2023-04-30T14:17:01.253Z,16.89
2023-04-30T14:19:29.271Z,16.76
2023-04-30T14:21:57.573Z,16.62
2023-04-30T14:24:26.182Z,16.51
2023-04-30T14:26:54.181Z,16.36
2023-04-30T14:29:22.556Z,16.28
2023-04-30T14:31:50.584Z,16.22
2023-04-30T14:34:19.758Z,16.13
2023-04-30T14:36:47.624Z,16.01
2023-04-30T14:39:15.746Z,15.92
2023-04-30T14:41:44.236Z,15.87
2023-04-30T14:44:12.075Z,15.82
2023-04-30T14:46:40.792Z,15.79
2023-04-30T14:49:08.767Z,15.77
2023-04-30T14:51:36.644Z,15.75
2023-04-30T14:54:04.439Z,15.71
2023-04-30T14:56:32.239Z,15.72
2023-04-30T14:59:00.056Z,15.69
2023-04-30T15:01:28.755Z,15.67
2023-04-30T15:03:56.711Z,15.66
2023-04-30T15:06:24.629Z,15.66
2023-04-30T15:08:52.583Z,15.65
2023-04-30T15:11:20.493Z,15.67
2023-04-30T15:13:48.444Z,15.64
2023-04-30T15:16:19.651Z,15.58
2023-04-30T15:18:48.995Z,15.53
2023-04-30T15:21:17.015Z,15.50
2023-04-30T15:23:45.903Z,15.48
2023-04-30T15:26:13.749Z,15.47
2023-04-30T15:28:41.560Z,15.47
2023-04-30T15:31:11.376Z,15.49
2023-04-30T15:33:42.144Z,15.50
2023-04-30T15:36:11.030Z,15.50
2023-04-30T15:38:39.159Z,15.47
2023-04-30T15:41:06.888Z,15.46
2023-04-30T15:43:34.762Z,15.44
2023-04-30T15:46:03.328Z,15.41
2023-04-30T15:48:31.307Z,15.40
2023-04-30T15:50:59.609Z,15.37
2023-04-30T15:53:27.448Z,15.32
2023-04-30T15:55:57.117Z,15.28
2023-04-30T15:58:24.961Z,15.25
2023-04-30T16:00:53.737Z,15.22
2023-04-30T16:03:21.759Z,15.19
2023-04-30T16:05:49.673Z,15.15
2023-04-30T16:08:17.463Z,15.15
2023-04-30T16:10:45.401Z,15.14
2023-04-30T16:13:13.970Z,15.13
2023-04-30T16:15:41.818Z,15.13
2023-04-30T16:18:10.150Z,15.12
2023-04-30T16:20:38.087Z,15.12
2023-04-30T16:23:05.998Z,15.12
2023-04-30T16:25:33.826Z,15.11
2023-04-30T16:28:01.637Z,15.10
2023-04-30T16:30:29.412Z,15.08
2023-04-30T16:32:57.226Z,15.05
2023-04-30T16:35:25.130Z,15.02
2023-04-30T16:37:54.437Z,15.00
2023-04-30T16:40:22.529Z,14.99
2023-04-30T16:42:50.343Z,14.96
2023-04-30T16:45:18.211Z,14.94
2023-04-30T16:47:45.978Z,14.89
2023-04-30T16:50:13.819Z,14.85
2023-04-30T16:52:41.608Z,14.80
2023-04-30T16:55:10.577Z,14.78
2023-04-30T16:57:38.463Z,14.74
2023-04-30T17:00:08.805Z,14.72
2023-04-30T17:02:38.105Z,14.70
2023-04-30T17:05:06.926Z,14.68
2023-04-30T17:07:34.736Z,14.67
2023-04-30T17:10:04.435Z,14.65
2023-04-30T17:12:32.334Z,14.63
2023-04-30T17:15:00.082Z,14.60
2023-04-30T17:17:27.903Z,14.57
2023-04-30T17:19:56.563Z,14.54
2023-04-30T17:22:24.984Z,14.51
2023-04-30T17:24:52.877Z,14.48
2023-04-30T17:27:20.857Z,14.44
2023-04-30T17:29:48.666Z,14.40
2023-04-30T17:32:17.765Z,14.36
2023-04-30T17:34:46.339Z,14.30
2023-04-30T17:37:14.129Z,14.25
2023-04-30T17:39:41.951Z,14.20
2023-04-30T17:42:10.048Z,14.15
2023-04-30T17:44:38.024Z,14.10
2023-04-30T17:47:07.018Z,14.05
2023-04-30T17:49:34.867Z,13.99
2023-04-30T17:52:05.745Z,13.95
2023-04-30T17:54:33.974Z,13.89
2023-04-30T17:57:02.311Z,13.85
2023-04-30T17:59:30.426Z,13.80
2023-04-30T18:01:59.073Z,13.74
2023-04-30T18:04:26.934Z,13.69
2023-04-30T18:06:54.671Z,13.63
2023-04-30T18:09:22.846Z,13.57
2023-04-30T18:11:51.837Z,13.51
2023-04-30T18:14:19.812Z,13.44
2023-04-30T18:16:47.871Z,13.37
2023-04-30T18:19:15.957Z,13.30
2023-04-30T18:21:43.802Z,13.23
2023-04-30T18:24:11.576Z,13.15
2023-04-30T18:26:39.344Z,13.08
2023-04-30T18:29:08.020Z,13.00
2023-04-30T18:31:37.478Z,12.92
2023-04-30T18:34:05.419Z,12.84
2023-04-30T18:36:33.369Z,12.75
2023-04-30T18:39:01.157Z,12.66
2023-04-30T18:41:29.180Z,12.58
2023-04-30T18:43:57.153Z,12.49
2023-04-30T18:46:25.356Z,12.40
2023-04-30T18:48:53.202Z,12.30
2023-04-30T18:51:21.163Z,12.22
2023-04-30T18:53:50.662Z,12.14
2023-04-30T18:56:18.446Z,12.04
2023-04-30T18:58:47.020Z,11.95
2023-04-30T19:01:14.993Z,11.86
2023-04-30T19:03:42.831Z,11.77
2023-04-30T19:06:11.020Z,11.68
2023-04-30T19:08:38.885Z,11.60
2023-04-30T19:11:08.228Z,11.52
2023-04-30T19:13:36.097Z,11.44
2023-04-30T19:16:04.500Z,11.35
2023-04-30T19:18:33.678Z,11.26
2023-04-30T19:21:02.406Z,11.19
2023-04-30T19:23:30.721Z,11.11
2023-04-30T19:25:59.726Z,11.04
2023-04-30T19:28:28.109Z,10.98
2023-04-30T19:30:56.498Z,10.92
2023-04-30T19:33:30.971Z,10.87
2023-04-30T19:35:58.890Z,10.81
2023-04-30T19:38:27.093Z,10.76
2023-04-30T19:40:55.299Z,10.71
2023-04-30T19:43:25.074Z,10.65
2023-04-30T19:45:55.773Z,10.60
2023-04-30T19:48:25.626Z,10.55
2023-04-30T19:50:53.731Z,10.51
2023-04-30T19:53:22.280Z,10.47
2023-04-30T19:55:52.354Z,10.44
2023-04-30T19:58:20.495Z,10.40
2023-04-30T20:00:48.266Z,10.35
2023-04-30T20:03:17.868Z,10.31
2023-04-30T20:05:45.849Z,10.27
2023-04-30T20:08:13.765Z,10.22
2023-04-30T20:10:42.894Z,10.17
2023-04-30T20:13:11.257Z,10.13
2023-04-30T20:15:39.175Z,10.09
2023-04-30T20:18:07.111Z,10.06
2023-04-30T20:20:35.298Z,10.03
2023-04-30T20:23:17.675Z,10.00
2023-04-30T20:25:46.660Z,9.98
2023-04-30T20:28:16.440Z,9.96
2023-04-30T20:30:44.569Z,9.94
2023-04-30T20:33:13.977Z,9.92
2023-04-30T20:35:45.587Z,9.90
2023-04-30T20:38:14.626Z,9.89
2023-04-30T20:40:42.622Z,9.88
2023-04-30T20:43:11.787Z,9.86
2023-04-30T20:45:42.474Z,9.84
2023-04-30T20:48:10.382Z,9.81
2023-04-30T20:50:38.326Z,9.79
2023-04-30T20:53:06.133Z,9.77
2023-04-30T20:55:34.111Z,9.75
2023-04-30T20:58:03.037Z,9.74
2023-04-30T21:00:30.836Z,9.71
2023-04-30T21:02:58.788Z,9.69
2023-04-30T21:05:28.572Z,9.67
2023-04-30T21:08:01.060Z,9.65
2023-04-30T21:10:36.157Z,9.62
2023-04-30T21:13:05.534Z,9.61
2023-04-30T21:15:36.302Z,9.59
2023-04-30T21:18:04.337Z,9.56
2023-04-30T21:20:32.553Z,9.53
2023-04-30T21:23:02.198Z,9.52
2023-04-30T21:25:30.345Z,9.49
2023-04-30T21:27:58.378Z,9.46
2023-04-30T21:30:26.635Z,9.44
2023-04-30T21:32:58.840Z,9.41
2023-04-30T21:35:30.310Z,9.38
2023-04-30T21:37:58.406Z,9.35
2023-04-30T21:40:26.515Z,9.31
2023-04-30T21:42:54.792Z,9.29
2023-04-30T21:45:22.973Z,9.26
2023-04-30T21:47:51.254Z,9.24
2023-04-30T21:50:19.102Z,9.22
2023-04-30T21:52:47.038Z,9.19
2023-04-30T21:55:14.957Z,9.16
2023-04-30T21:57:42.987Z,9.14
2023-04-30T22:00:14.432Z,9.11
2023-04-30T22:02:42.504Z,9.09
2023-04-30T22:05:13.063Z,9.07
2023-04-30T22:07:41.281Z,9.04
2023-04-30T22:10:10.447Z,9.02
2023-04-30T22:12:38.638Z,8.99
2023-04-30T22:15:07.614Z,8.96
2023-04-30T22:17:35.437Z,8.93
2023-04-30T22:20:03.866Z,8.89
2023-04-30T22:22:32.163Z,8.86
2023-04-30T22:24:59.951Z,8.82
2023-04-30T22:27:27.785Z,8.78
2023-04-30T22:29:55.765Z,8.73
2023-04-30T22:32:23.736Z,8.70
2023-04-30T22:34:51.780Z,8.66
2023-04-30T22:37:19.645Z,8.62
2023-04-30T22:39:48.447Z,8.57
2023-04-30T22:42:16.912Z,8.54
2023-04-30T22:44:45.935Z,8.50
2023-04-30T22:47:13.993Z,8.45
2023-04-30T22:49:42.394Z,8.41
2023-04-30T22:52:10.343Z,8.37
2023-04-30T22:54:39.040Z,8.32
2023-04-30T22:57:06.907Z,8.27
2023-04-30T22:59:34.740Z,8.22
2023-04-30T23:02:02.619Z,8.17
2023-04-30T23:04:32.530Z,8.12
2023-04-30T23:07:00.442Z,8.06
2023-04-30T23:09:28.725Z,8.01
2023-04-30T23:11:57.191Z,7.95
2023-04-30T23:14:25.883Z,7.90
2023-04-30T23:16:54.253Z,7.84
2023-04-30T23:19:22.376Z,7.79
2023-04-30T23:21:52.430Z,7.74
2023-04-30T23:24:20.241Z,7.68
2023-04-30T23:26:48.063Z,7.63
2023-04-30T23:29:15.864Z,7.59
2023-04-30T23:31:43.674Z,7.53
2023-04-30T23:34:11.667Z,7.48
2023-04-30T23:36:40.139Z,7.44
2023-04-30T23:39:08.241Z,7.38
2023-04-30T23:41:36.123Z,7.34
2023-04-30T23:44:04.537Z,7.29
2023-04-30T23:46:32.454Z,7.25
2023-04-30T23:49:00.423Z,7.20
2023-04-30T23:51:28.171Z,7.15
2023-04-30T23:53:56.057Z,7.11
2023-04-30T23:56:24.037Z,7.08
2023-04-30T23:58:51.834Z,7.05
